sensor_id;sensor_type;location;lat;lon;timestamp;P1;durP1;ratioP1;P2;durP2;ratioP2
57651;SDS011;43480;53.116;6.734;2024-01-10T00:01:38;36.95;;;21.15;;
57651;SDS011;43480;53.116;6.734;2024-01-10T00:04:03;31.75;;;20.63;;
57651;SDS011;43480;53.116;6.734;2024-01-10T00:06:29;32.17;;;19.60;;
57651;SDS011;43480;53.116;6.734;2024-01-10T00:08:54;31.23;;;20.50;;
57651;SDS011;43480;53.116;6.734;2024-01-10T00:11:20;29.95;;;20.67;;
57651;SDS011;43480;53.116;6.734;2024-01-10T00:13:46;36.45;;;20.95;;
57651;SDS011;43480;53.116;6.734;2024-01-10T00:16:12;31.92;;;20.58;;
57651;SDS011;43480;53.116;6.734;2024-01-10T00:18:38;32.35;;;20.25;;
57651;SDS011;43480;53.116;6.734;2024-01-10T00:21:05;34.53;;;21.10;;
57651;SDS011;43480;53.116;6.734;2024-01-10T00:23:32;33.72;;;20.65;;
57651;SDS011;43480;53.116;6.734;2024-01-10T00:25:57;33.55;;;20.60;;
57651;SDS011;43480;53.116;6.734;2024-01-10T00:28:23;34.63;;;20.05;;
57651;SDS011;43480;53.116;6.734;2024-01-10T00:30:50;33.92;;;18.85;;
57651;SDS011;43480;53.116;6.734;2024-01-10T00:33:15;32.63;;;19.23;;
57651;SDS011;43480;53.116;6.734;2024-01-10T00:35:41;26.15;;;17.38;;
57651;SDS011;43480;53.116;6.734;2024-01-10T00:38:07;31.65;;;18.58;;
57651;SDS011;43480;53.116;6.734;2024-01-10T00:40:33;30.67;;;16.92;;
57651;SDS011;43480;53.116;6.734;2024-01-10T00:42:59;25.95;;;16.42;;
57651;SDS011;43480;53.116;6.734;2024-01-10T00:45:25;29.63;;;17.63;;
57651;SDS011;43480;53.116;6.734;2024-01-10T00:47:51;27.48;;;18.00;;
57651;SDS011;43480;53.116;6.734;2024-01-10T00:50:16;31.88;;;19.30;;
57651;SDS011;43480;53.116;6.734;2024-01-10T00:52:43;29.40;;;18.05;;
57651;SDS011;43480;53.116;6.734;2024-01-10T00:55:09;32.35;;;19.75;;
57651;SDS011;43480;53.116;6.734;2024-01-10T00:57:35;31.33;;;19.02;;
57651;SDS011;43480;53.116;6.734;2024-01-10T01:00:03;32.25;;;18.95;;
57651;SDS011;43480;53.116;6.734;2024-01-10T01:02:36;27.92;;;18.52;;
57651;SDS011;43480;53.116;6.734;2024-01-10T01:05:02;29.45;;;18.85;;
57651;SDS011;43480;53.116;6.734;2024-01-10T01:07:28;34.60;;;21.65;;
57651;SDS011;43480;53.116;6.734;2024-01-10T01:09:54;31.90;;;20.83;;
57651;SDS011;43480;53.116;6.734;2024-01-10T01:12:19;34.42;;;19.85;;
57651;SDS011;43480;53.116;6.734;2024-01-10T01:14:45;34.20;;;20.88;;
57651;SDS011;43480;53.116;6.734;2024-01-10T01:17:10;34.17;;;20.23;;
57651;SDS011;43480;53.116;6.734;2024-01-10T01:19:36;34.38;;;19.63;;
57651;SDS011;43480;53.116;6.734;2024-01-10T01:22:02;29.23;;;19.20;;
57651;SDS011;43480;53.116;6.734;2024-01-10T01:24:28;33.20;;;19.92;;
57651;SDS011;43480;53.116;6.734;2024-01-10T01:26:53;32.90;;;20.42;;
57651;SDS011;43480;53.116;6.734;2024-01-10T01:29:20;36.53;;;22.17;;
57651;SDS011;43480;53.116;6.734;2024-01-10T01:31:45;36.17;;;21.83;;
57651;SDS011;43480;53.116;6.734;2024-01-10T01:34:12;36.10;;;22.55;;
57651;SDS011;43480;53.116;6.734;2024-01-10T01:36:37;41.33;;;23.92;;
57651;SDS011;43480;53.116;6.734;2024-01-10T01:39:03;34.13;;;22.40;;
57651;SDS011;43480;53.116;6.734;2024-01-10T01:41:28;34.42;;;22.33;;
57651;SDS011;43480;53.116;6.734;2024-01-10T01:43:54;35.80;;;22.23;;
57651;SDS011;43480;53.116;6.734;2024-01-10T01:46:20;33.70;;;22.42;;
57651;SDS011;43480;53.116;6.734;2024-01-10T01:48:46;37.63;;;22.00;;
57651;SDS011;43480;53.116;6.734;2024-01-10T01:51:12;39.55;;;25.27;;
57651;SDS011;43480;53.116;6.734;2024-01-10T01:53:39;38.58;;;22.02;;
57651;SDS011;43480;53.116;6.734;2024-01-10T01:56:07;43.42;;;22.98;;
57651;SDS011;43480;53.116;6.734;2024-01-10T01:58:33;41.10;;;23.17;;
57651;SDS011;43480;53.116;6.734;2024-01-10T02:01:01;36.80;;;22.05;;
57651;SDS011;43480;53.116;6.734;2024-01-10T02:03:28;40.35;;;22.85;;
57651;SDS011;43480;53.116;6.734;2024-01-10T02:05:56;38.80;;;22.83;;
57651;SDS011;43480;53.116;6.734;2024-01-10T02:08:22;34.30;;;21.63;;
57651;SDS011;43480;53.116;6.734;2024-01-10T02:10:48;35.90;;;21.40;;
57651;SDS011;43480;53.116;6.734;2024-01-10T02:13:14;39.13;;;22.10;;
57651;SDS011;43480;53.116;6.734;2024-01-10T02:15:41;36.60;;;23.05;;
57651;SDS011;43480;53.116;6.734;2024-01-10T02:18:06;36.80;;;22.90;;
57651;SDS011;43480;53.116;6.734;2024-01-10T02:20:32;35.53;;;21.25;;
57651;SDS011;43480;53.116;6.734;2024-01-10T02:22:58;36.65;;;22.33;;
57651;SDS011;43480;53.116;6.734;2024-01-10T02:25:24;39.97;;;22.30;;
57651;SDS011;43480;53.116;6.734;2024-01-10T02:27:50;38.03;;;23.58;;
57651;SDS011;43480;53.116;6.734;2024-01-10T02:30:15;36.60;;;22.48;;
57651;SDS011;43480;53.116;6.734;2024-01-10T02:32:41;38.45;;;23.00;;
57651;SDS011;43480;53.116;6.734;2024-01-10T02:35:07;35.35;;;21.85;;
57651;SDS011;43480;53.116;6.734;2024-01-10T02:37:33;36.28;;;22.05;;
57651;SDS011;43480;53.116;6.734;2024-01-10T02:39:59;38.08;;;22.27;;
57651;SDS011;43480;53.116;6.734;2024-01-10T02:42:26;41.10;;;23.42;;
57651;SDS011;43480;53.116;6.734;2024-01-10T02:44:53;37.47;;;22.30;;
57651;SDS011;43480;53.116;6.734;2024-01-10T02:47:18;34.78;;;21.60;;
57651;SDS011;43480;53.116;6.734;2024-01-10T02:49:44;36.58;;;21.58;;
57651;SDS011;43480;53.116;6.734;2024-01-10T02:52:10;40.40;;;21.88;;
57651;SDS011;43480;53.116;6.734;2024-01-10T02:54:35;38.08;;;23.13;;
57651;SDS011;43480;53.116;6.734;2024-01-10T02:57:01;36.42;;;22.58;;
57651;SDS011;43480;53.116;6.734;2024-01-10T02:59:27;36.38;;;23.17;;
57651;SDS011;43480;53.116;6.734;2024-01-10T03:01:52;32.50;;;21.83;;
57651;SDS011;43480;53.116;6.734;2024-01-10T03:04:18;34.08;;;22.10;;
57651;SDS011;43480;53.116;6.734;2024-01-10T03:06:44;34.35;;;21.90;;
57651;SDS011;43480;53.116;6.734;2024-01-10T03:09:10;32.53;;;20.42;;
57651;SDS011;43480;53.116;6.734;2024-01-10T03:11:36;32.88;;;20.65;;
57651;SDS011;43480;53.116;6.734;2024-01-10T03:14:02;34.95;;;21.60;;
57651;SDS011;43480;53.116;6.734;2024-01-10T03:16:32;32.25;;;20.88;;
57651;SDS011;43480;53.116;6.734;2024-01-10T03:18:57;35.80;;;21.13;;
57651;SDS011;43480;53.116;6.734;2024-01-10T03:21:23;32.55;;;20.20;;
57651;SDS011;43480;53.116;6.734;2024-01-10T03:23:51;37.83;;;22.08;;
57651;SDS011;43480;53.116;6.734;2024-01-10T03:26:24;30.23;;;19.38;;
57651;SDS011;43480;53.116;6.734;2024-01-10T03:28:50;33.35;;;21.35;;
57651;SDS011;43480;53.116;6.734;2024-01-10T03:31:16;32.63;;;21.27;;
57651;SDS011;43480;53.116;6.734;2024-01-10T03:33:43;33.95;;;21.83;;
57651;SDS011;43480;53.116;6.734;2024-01-10T03:36:10;32.83;;;20.00;;
57651;SDS011;43480;53.116;6.734;2024-01-10T03:38:37;30.45;;;18.67;;
57651;SDS011;43480;53.116;6.734;2024-01-10T03:41:03;31.75;;;19.23;;
57651;SDS011;43480;53.116;6.734;2024-01-10T03:43:29;30.45;;;18.90;;
57651;SDS011;43480;53.116;6.734;2024-01-10T03:45:54;33.72;;;20.08;;
57651;SDS011;43480;53.116;6.734;2024-01-10T03:48:20;33.47;;;19.33;;
57651;SDS011;43480;53.116;6.734;2024-01-10T03:50:46;33.85;;;20.67;;
57651;SDS011;43480;53.116;6.734;2024-01-10T03:53:11;35.08;;;19.33;;
57651;SDS011;43480;53.116;6.734;2024-01-10T03:55:37;30.48;;;18.92;;
57651;SDS011;43480;53.116;6.734;2024-01-10T03:58:04;29.45;;;21.08;;
57651;SDS011;43480;53.116;6.734;2024-01-10T04:00:29;34.67;;;20.73;;
57651;SDS011;43480;53.116;6.734;2024-01-10T04:02:55;30.35;;;19.02;;
57651;SDS011;43480;53.116;6.734;2024-01-10T04:05:21;33.63;;;20.45;;
57651;SDS011;43480;53.116;6.734;2024-01-10T04:07:49;32.60;;;20.70;;
57651;SDS011;43480;53.116;6.734;2024-01-10T04:10:15;33.92;;;21.20;;
57651;SDS011;43480;53.116;6.734;2024-01-10T04:12:41;32.90;;;21.13;;
57651;SDS011;43480;53.116;6.734;2024-01-10T04:15:07;33.97;;;21.77;;
57651;SDS011;43480;53.116;6.734;2024-01-10T04:17:34;36.08;;;21.55;;
57651;SDS011;43480;53.116;6.734;2024-01-10T04:19:59;37.55;;;21.95;;
57651;SDS011;43480;53.116;6.734;2024-01-10T04:22:25;34.42;;;21.35;;
57651;SDS011;43480;53.116;6.734;2024-01-10T04:24:51;31.48;;;20.33;;
57651;SDS011;43480;53.116;6.734;2024-01-10T04:27:17;33.13;;;21.73;;
57651;SDS011;43480;53.116;6.734;2024-01-10T04:29:45;31.50;;;20.88;;
57651;SDS011;43480;53.116;6.734;2024-01-10T04:32:11;37.20;;;22.70;;
57651;SDS011;43480;53.116;6.734;2024-01-10T04:34:37;33.55;;;22.40;;
57651;SDS011;43480;53.116;6.734;2024-01-10T04:37:02;34.42;;;22.15;;
57651;SDS011;43480;53.116;6.734;2024-01-10T04:39:28;38.55;;;24.35;;
57651;SDS011;43480;53.116;6.734;2024-01-10T04:41:54;34.92;;;22.48;;
57651;SDS011;43480;53.116;6.734;2024-01-10T04:44:20;37.85;;;23.65;;
57651;SDS011;43480;53.116;6.734;2024-01-10T04:46:46;35.50;;;21.98;;
57651;SDS011;43480;53.116;6.734;2024-01-10T04:49:11;41.90;;;24.33;;
57651;SDS011;43480;53.116;6.734;2024-01-10T04:51:37;37.40;;;22.10;;
57651;SDS011;43480;53.116;6.734;2024-01-10T04:54:04;35.47;;;23.35;;
57651;SDS011;43480;53.116;6.734;2024-01-10T04:56:30;38.88;;;25.55;;
57651;SDS011;43480;53.116;6.734;2024-01-10T04:58:55;40.53;;;24.15;;
57651;SDS011;43480;53.116;6.734;2024-01-10T05:01:21;34.97;;;21.55;;
57651;SDS011;43480;53.116;6.734;2024-01-10T05:03:47;35.72;;;23.92;;
57651;SDS011;43480;53.116;6.734;2024-01-10T05:06:12;38.35;;;23.85;;
57651;SDS011;43480;53.116;6.734;2024-01-10T05:08:38;35.65;;;21.95;;
57651;SDS011;43480;53.116;6.734;2024-01-10T05:11:03;32.35;;;21.50;;
57651;SDS011;43480;53.116;6.734;2024-01-10T05:13:29;37.90;;;21.52;;
57651;SDS011;43480;53.116;6.734;2024-01-10T05:15:55;35.05;;;23.35;;
57651;SDS011;43480;53.116;6.734;2024-01-10T05:18:21;39.28;;;21.90;;
57651;SDS011;43480;53.116;6.734;2024-01-10T05:20:47;34.15;;;21.90;;
57651;SDS011;43480;53.116;6.734;2024-01-10T05:23:13;34.55;;;20.88;;
57651;SDS011;43480;53.116;6.734;2024-01-10T05:25:38;34.22;;;20.27;;
57651;SDS011;43480;53.116;6.734;2024-01-10T05:28:04;36.15;;;21.00;;
57651;SDS011;43480;53.116;6.734;2024-01-10T05:30:30;38.50;;;22.33;;
57651;SDS011;43480;53.116;6.734;2024-01-10T05:32:57;34.35;;;21.23;;
57651;SDS011;43480;53.116;6.734;2024-01-10T05:35:23;34.45;;;21.67;;
57651;SDS011;43480;53.116;6.734;2024-01-10T05:37:53;30.95;;;20.83;;
57651;SDS011;43480;53.116;6.734;2024-01-10T05:40:19;35.63;;;22.73;;
57651;SDS011;43480;53.116;6.734;2024-01-10T05:42:45;37.78;;;23.95;;
57651;SDS011;43480;53.116;6.734;2024-01-10T05:45:11;34.42;;;21.73;;
57651;SDS011;43480;53.116;6.734;2024-01-10T05:47:37;33.03;;;20.73;;
57651;SDS011;43480;53.116;6.734;2024-01-10T05:50:02;37.45;;;22.48;;
57651;SDS011;43480;53.116;6.734;2024-01-10T05:52:31;37.00;;;23.23;;
57651;SDS011;43480;53.116;6.734;2024-01-10T05:54:58;33.63;;;21.55;;
57651;SDS011;43480;53.116;6.734;2024-01-10T05:57:26;36.70;;;22.85;;
57651;SDS011;43480;53.116;6.734;2024-01-10T05:59:52;36.28;;;22.65;;
57651;SDS011;43480;53.116;6.734;2024-01-10T06:02:21;37.60;;;23.83;;
57651;SDS011;43480;53.116;6.734;2024-01-10T06:04:46;37.22;;;21.90;;
57651;SDS011;43480;53.116;6.734;2024-01-10T06:07:12;32.33;;;20.45;;
57651;SDS011;43480;53.116;6.734;2024-01-10T06:09:37;36.45;;;22.65;;
57651;SDS011;43480;53.116;6.734;2024-01-10T06:12:04;40.72;;;23.67;;
57651;SDS011;43480;53.116;6.734;2024-01-10T06:14:31;36.40;;;23.92;;
57651;SDS011;43480;53.116;6.734;2024-01-10T06:16:57;37.42;;;23.15;;
57651;SDS011;43480;53.116;6.734;2024-01-10T06:19:25;42.25;;;24.48;;
57651;SDS011;43480;53.116;6.734;2024-01-10T06:21:50;40.88;;;24.98;;
57651;SDS011;43480;53.116;6.734;2024-01-10T06:24:17;42.20;;;25.55;;
57651;SDS011;43480;53.116;6.734;2024-01-10T06:26:43;37.58;;;23.58;;
57651;SDS011;43480;53.116;6.734;2024-01-10T06:29:08;43.50;;;25.92;;
57651;SDS011;43480;53.116;6.734;2024-01-10T06:31:34;38.47;;;24.17;;
57651;SDS011;43480;53.116;6.734;2024-01-10T06:34:00;41.05;;;26.35;;
57651;SDS011;43480;53.116;6.734;2024-01-10T06:36:25;40.75;;;24.40;;
57651;SDS011;43480;53.116;6.734;2024-01-10T06:38:51;41.22;;;24.42;;
57651;SDS011;43480;53.116;6.734;2024-01-10T06:41:16;37.35;;;24.02;;
57651;SDS011;43480;53.116;6.734;2024-01-10T06:43:46;36.83;;;22.70;;
57651;SDS011;43480;53.116;6.734;2024-01-10T06:46:12;39.42;;;25.08;;
57651;SDS011;43480;53.116;6.734;2024-01-10T06:48:37;39.65;;;25.98;;
57651;SDS011;43480;53.116;6.734;2024-01-10T06:51:03;40.78;;;24.58;;
57651;SDS011;43480;53.116;6.734;2024-01-10T06:53:29;39.35;;;24.33;;
57651;SDS011;43480;53.116;6.734;2024-01-10T06:55:54;37.70;;;23.95;;
57651;SDS011;43480;53.116;6.734;2024-01-10T06:58:20;34.70;;;23.15;;
57651;SDS011;43480;53.116;6.734;2024-01-10T07:00:46;37.67;;;24.48;;
57651;SDS011;43480;53.116;6.734;2024-01-10T07:03:11;40.38;;;25.50;;
57651;SDS011;43480;53.116;6.734;2024-01-10T07:05:37;33.92;;;22.73;;
57651;SDS011;43480;53.116;6.734;2024-01-10T07:08:03;42.40;;;26.08;;
57651;SDS011;43480;53.116;6.734;2024-01-10T07:10:29;40.17;;;25.13;;
57651;SDS011;43480;53.116;6.734;2024-01-10T07:12:55;36.03;;;24.05;;
57651;SDS011;43480;53.116;6.734;2024-01-10T07:15:20;37.60;;;24.40;;
57651;SDS011;43480;53.116;6.734;2024-01-10T07:17:47;39.40;;;24.42;;
57651;SDS011;43480;53.116;6.734;2024-01-10T07:20:13;41.85;;;24.23;;
57651;SDS011;43480;53.116;6.734;2024-01-10T07:22:39;38.22;;;22.20;;
57651;SDS011;43480;53.116;6.734;2024-01-10T07:25:09;36.55;;;23.63;;
57651;SDS011;43480;53.116;6.734;2024-01-10T07:27:39;43.00;;;24.95;;
57651;SDS011;43480;53.116;6.734;2024-01-10T07:30:06;37.50;;;22.50;;
57651;SDS011;43480;53.116;6.734;2024-01-10T07:32:47;41.75;;;24.27;;
57651;SDS011;43480;53.116;6.734;2024-01-10T07:35:13;38.88;;;24.27;;
57651;SDS011;43480;53.116;6.734;2024-01-10T07:37:40;45.33;;;24.33;;
57651;SDS011;43480;53.116;6.734;2024-01-10T07:40:06;39.20;;;23.98;;
57651;SDS011;43480;53.116;6.734;2024-01-10T07:42:42;40.72;;;23.25;;
57651;SDS011;43480;53.116;6.734;2024-01-10T07:45:08;40.35;;;25.27;;
57651;SDS011;43480;53.116;6.734;2024-01-10T07:47:34;32.38;;;20.73;;
57651;SDS011;43480;53.116;6.734;2024-01-10T07:50:11;38.35;;;22.60;;
57651;SDS011;43480;53.116;6.734;2024-01-10T07:52:40;40.45;;;23.77;;
57651;SDS011;43480;53.116;6.734;2024-01-10T07:55:06;39.88;;;21.92;;
57651;SDS011;43480;53.116;6.734;2024-01-10T07:57:33;39.00;;;21.92;;
57651;SDS011;43480;53.116;6.734;2024-01-10T08:00:00;36.97;;;20.48;;
57651;SDS011;43480;53.116;6.734;2024-01-10T08:02:26;37.53;;;20.83;;
57651;SDS011;43480;53.116;6.734;2024-01-10T08:04:52;35.53;;;19.90;;
57651;SDS011;43480;53.116;6.734;2024-01-10T08:07:17;36.63;;;19.15;;
57651;SDS011;43480;53.116;6.734;2024-01-10T08:09:44;38.67;;;19.50;;
57651;SDS011;43480;53.116;6.734;2024-01-10T08:12:10;37.30;;;21.42;;
57651;SDS011;43480;53.116;6.734;2024-01-10T08:14:37;41.78;;;20.83;;
57651;SDS011;43480;53.116;6.734;2024-01-10T08:17:03;41.03;;;20.98;;
57651;SDS011;43480;53.116;6.734;2024-01-10T08:19:29;33.40;;;19.23;;
57651;SDS011;43480;53.116;6.734;2024-01-10T08:21:54;34.45;;;18.27;;
57651;SDS011;43480;53.116;6.734;2024-01-10T08:24:21;43.28;;;19.90;;
57651;SDS011;43480;53.116;6.734;2024-01-10T08:26:48;37.53;;;19.35;;
57651;SDS011;43480;53.116;6.734;2024-01-10T08:29:19;36.05;;;19.20;;
57651;SDS011;43480;53.116;6.734;2024-01-10T08:31:46;35.22;;;18.60;;
57651;SDS011;43480;53.116;6.734;2024-01-10T08:34:12;37.33;;;18.17;;
57651;SDS011;43480;53.116;6.734;2024-01-10T08:36:38;36.97;;;16.77;;
57651;SDS011;43480;53.116;6.734;2024-01-10T08:39:04;33.95;;;17.02;;
57651;SDS011;43480;53.116;6.734;2024-01-10T08:41:31;33.42;;;16.13;;
57651;SDS011;43480;53.116;6.734;2024-01-10T08:43:57;33.92;;;17.73;;
57651;SDS011;43480;53.116;6.734;2024-01-10T08:46:23;34.20;;;16.10;;
57651;SDS011;43480;53.116;6.734;2024-01-10T08:48:49;32.20;;;15.77;;
57651;SDS011;43480;53.116;6.734;2024-01-10T08:51:15;31.63;;;16.15;;
57651;SDS011;43480;53.116;6.734;2024-01-10T08:53:42;33.85;;;16.23;;
57651;SDS011;43480;53.116;6.734;2024-01-10T08:56:10;32.97;;;15.63;;
57651;SDS011;43480;53.116;6.734;2024-01-10T08:58:36;34.17;;;15.10;;
57651;SDS011;43480;53.116;6.734;2024-01-10T09:01:05;27.70;;;14.23;;
57651;SDS011;43480;53.116;6.734;2024-01-10T09:03:30;32.65;;;15.30;;
57651;SDS011;43480;53.116;6.734;2024-01-10T09:05:56;31.88;;;14.55;;
57651;SDS011;43480;53.116;6.734;2024-01-10T09:08:22;29.70;;;14.18;;
57651;SDS011;43480;53.116;6.734;2024-01-10T09:10:48;35.20;;;14.38;;
57651;SDS011;43480;53.116;6.734;2024-01-10T09:13:16;30.17;;;15.52;;
57651;SDS011;43480;53.116;6.734;2024-01-10T09:15:42;30.02;;;14.27;;
57651;SDS011;43480;53.116;6.734;2024-01-10T09:18:08;29.20;;;14.45;;
57651;SDS011;43480;53.116;6.734;2024-01-10T09:20:34;29.58;;;13.77;;
57651;SDS011;43480;53.116;6.734;2024-01-10T09:23:01;26.58;;;13.48;;
57651;SDS011;43480;53.116;6.734;2024-01-10T09:25:27;29.65;;;14.35;;
57651;SDS011;43480;53.116;6.734;2024-01-10T09:27:53;30.98;;;13.68;;
57651;SDS011;43480;53.116;6.734;2024-01-10T09:30:19;24.80;;;13.00;;
57651;SDS011;43480;53.116;6.734;2024-01-10T09:32:45;30.10;;;12.60;;
57651;SDS011;43480;53.116;6.734;2024-01-10T09:35:11;27.85;;;13.10;;
57651;SDS011;43480;53.116;6.734;2024-01-10T09:37:37;31.77;;;13.30;;
57651;SDS011;43480;53.116;6.734;2024-01-10T09:40:03;26.58;;;14.00;;
57651;SDS011;43480;53.116;6.734;2024-01-10T09:42:31;24.38;;;11.07;;
57651;SDS011;43480;53.116;6.734;2024-01-10T09:44:58;25.17;;;12.82;;
57651;SDS011;43480;53.116;6.734;2024-01-10T09:47:24;22.80;;;11.63;;
57651;SDS011;43480;53.116;6.734;2024-01-10T09:49:50;26.30;;;11.93;;
57651;SDS011;43480;53.116;6.734;2024-01-10T09:52:19;25.80;;;12.30;;
57651;SDS011;43480;53.116;6.734;2024-01-10T09:54:56;28.23;;;12.95;;
57651;SDS011;43480;53.116;6.734;2024-01-10T09:57:25;26.42;;;12.40;;
57651;SDS011;43480;53.116;6.734;2024-01-10T09:59:51;20.75;;;11.13;;
57651;SDS011;43480;53.116;6.734;2024-01-10T10:02:18;23.00;;;10.73;;
57651;SDS011;43480;53.116;6.734;2024-01-10T10:04:47;23.10;;;11.98;;
57651;SDS011;43480;53.116;6.734;2024-01-10T10:07:24;26.83;;;12.05;;
57651;SDS011;43480;53.116;6.734;2024-01-10T10:09:50;21.15;;;11.10;;
57651;SDS011;43480;53.116;6.734;2024-01-10T10:12:18;24.75;;;12.23;;
57651;SDS011;43480;53.116;6.734;2024-01-10T10:14:44;21.95;;;10.70;;
57651;SDS011;43480;53.116;6.734;2024-01-10T10:17:13;26.83;;;11.80;;
57651;SDS011;43480;53.116;6.734;2024-01-10T10:22:09;26.63;;;11.27;;
57651;SDS011;43480;53.116;6.734;2024-01-10T10:24:35;23.40;;;10.43;;
57651;SDS011;43480;53.116;6.734;2024-01-10T10:27:01;26.98;;;11.05;;
57651;SDS011;43480;53.116;6.734;2024-01-10T10:29:35;26.40;;;11.85;;
57651;SDS011;43480;53.116;6.734;2024-01-10T10:32:02;23.70;;;10.98;;
57651;SDS011;43480;53.116;6.734;2024-01-10T10:34:30;25.88;;;13.23;;
57651;SDS011;43480;53.116;6.734;2024-01-10T10:36:57;24.17;;;12.18;;
57651;SDS011;43480;53.116;6.734;2024-01-10T10:39:23;24.88;;;10.15;;
57651;SDS011;43480;53.116;6.734;2024-01-10T10:41:50;22.95;;;10.52;;
57651;SDS011;43480;53.116;6.734;2024-01-10T10:44:18;21.67;;;10.77;;
57651;SDS011;43480;53.116;6.734;2024-01-10T10:46:47;23.85;;;11.48;;
57651;SDS011;43480;53.116;6.734;2024-01-10T10:49:17;22.23;;;11.35;;
57651;SDS011;43480;53.116;6.734;2024-01-10T10:51:47;19.85;;;9.32;;
57651;SDS011;43480;53.116;6.734;2024-01-10T10:54:13;23.13;;;10.18;;
57651;SDS011;43480;53.116;6.734;2024-01-10T10:56:41;22.55;;;11.18;;
57651;SDS011;43480;53.116;6.734;2024-01-10T10:59:09;21.48;;;10.40;;
57651;SDS011;43480;53.116;6.734;2024-01-10T11:01:37;18.88;;;10.68;;
57651;SDS011;43480;53.116;6.734;2024-01-10T11:04:05;22.63;;;10.60;;
57651;SDS011;43480;53.116;6.734;2024-01-10T11:06:31;19.02;;;9.48;;
57651;SDS011;43480;53.116;6.734;2024-01-10T11:08:59;22.50;;;10.55;;
57651;SDS011;43480;53.116;6.734;2024-01-10T11:16:56;19.73;;;10.23;;
57651;SDS011;43480;53.116;6.734;2024-01-10T11:19:56;20.45;;;11.98;;
57651;SDS011;43480;53.116;6.734;2024-01-10T11:25:09;23.45;;;10.98;;
57651;SDS011;43480;53.116;6.734;2024-01-10T11:27:36;19.08;;;9.68;;
57651;SDS011;43480;53.116;6.734;2024-01-10T11:30:02;25.40;;;10.98;;
57651;SDS011;43480;53.116;6.734;2024-01-10T11:32:31;21.15;;;10.63;;
57651;SDS011;43480;53.116;6.734;2024-01-10T11:34:59;22.08;;;10.60;;
57651;SDS011;43480;53.116;6.734;2024-01-10T11:37:29;21.23;;;9.52;;
57651;SDS011;43480;53.116;6.734;2024-01-10T11:40:07;18.27;;;9.93;;
57651;SDS011;43480;53.116;6.734;2024-01-10T11:42:42;20.25;;;11.25;;
57651;SDS011;43480;53.116;6.734;2024-01-10T11:47:55;18.77;;;8.75;;
57651;SDS011;43480;53.116;6.734;2024-01-10T11:50:22;18.08;;;9.52;;
57651;SDS011;43480;53.116;6.734;2024-01-10T11:52:52;20.35;;;10.05;;
57651;SDS011;43480;53.116;6.734;2024-01-10T11:58:16;19.48;;;9.63;;
57651;SDS011;43480;53.116;6.734;2024-01-10T12:00:42;17.75;;;9.57;;
57651;SDS011;43480;53.116;6.734;2024-01-10T12:03:09;20.08;;;9.38;;
57651;SDS011;43480;53.116;6.734;2024-01-10T12:05:37;19.20;;;9.82;;
57651;SDS011;43480;53.116;6.734;2024-01-10T12:08:07;21.15;;;9.80;;
57651;SDS011;43480;53.116;6.734;2024-01-10T12:10:33;17.38;;;10.00;;
57651;SDS011;43480;53.116;6.734;2024-01-10T12:13:02;17.88;;;10.10;;
57651;SDS011;43480;53.116;6.734;2024-01-10T12:15:28;21.33;;;10.90;;
57651;SDS011;43480;53.116;6.734;2024-01-10T12:17:54;19.75;;;10.00;;
57651;SDS011;43480;53.116;6.734;2024-01-10T12:20:20;21.75;;;10.32;;
57651;SDS011;43480;53.116;6.734;2024-01-10T12:22:46;19.92;;;10.45;;
57651;SDS011;43480;53.116;6.734;2024-01-10T12:25:12;18.58;;;9.23;;
57651;SDS011;43480;53.116;6.734;2024-01-10T12:27:38;19.42;;;9.82;;
57651;SDS011;43480;53.116;6.734;2024-01-10T12:30:04;17.50;;;10.13;;
57651;SDS011;43480;53.116;6.734;2024-01-10T12:32:32;21.48;;;10.57;;
57651;SDS011;43480;53.116;6.734;2024-01-10T12:34:59;19.65;;;10.77;;
57651;SDS011;43480;53.116;6.734;2024-01-10T12:37:26;18.40;;;9.45;;
57651;SDS011;43480;53.116;6.734;2024-01-10T12:39:52;18.27;;;9.15;;
57651;SDS011;43480;53.116;6.734;2024-01-10T12:42:18;21.55;;;9.10;;
57651;SDS011;43480;53.116;6.734;2024-01-10T12:44:44;17.05;;;9.75;;
57651;SDS011;43480;53.116;6.734;2024-01-10T12:47:20;17.77;;;9.73;;
57651;SDS011;43480;53.116;6.734;2024-01-10T12:49:47;16.33;;;8.57;;
57651;SDS011;43480;53.116;6.734;2024-01-10T12:52:13;16.23;;;8.85;;
57651;SDS011;43480;53.116;6.734;2024-01-10T12:54:39;13.80;;;8.13;;
57651;SDS011;43480;53.116;6.734;2024-01-10T12:57:05;18.05;;;9.00;;
57651;SDS011;43480;53.116;6.734;2024-01-10T12:59:35;15.88;;;8.15;;
57651;SDS011;43480;53.116;6.734;2024-01-10T13:02:00;16.65;;;9.35;;
57651;SDS011;43480;53.116;6.734;2024-01-10T13:04:26;18.90;;;10.38;;
57651;SDS011;43480;53.116;6.734;2024-01-10T13:06:52;16.58;;;9.75;;
57651;SDS011;43480;53.116;6.734;2024-01-10T13:09:17;15.80;;;8.82;;
57651;SDS011;43480;53.116;6.734;2024-01-10T13:11:43;18.98;;;10.02;;
57651;SDS011;43480;53.116;6.734;2024-01-10T13:14:10;16.13;;;8.73;;
57651;SDS011;43480;53.116;6.734;2024-01-10T13:16:37;17.13;;;8.05;;
57651;SDS011;43480;53.116;6.734;2024-01-10T13:19:03;17.13;;;9.52;;
57651;SDS011;43480;53.116;6.734;2024-01-10T13:21:28;18.33;;;9.18;;
57651;SDS011;43480;53.116;6.734;2024-01-10T13:23:54;16.40;;;9.80;;
57651;SDS011;43480;53.116;6.734;2024-01-10T13:26:20;16.20;;;9.30;;
57651;SDS011;43480;53.116;6.734;2024-01-10T13:28:45;18.08;;;9.23;;
57651;SDS011;43480;53.116;6.734;2024-01-10T13:31:11;15.70;;;9.48;;
57651;SDS011;43480;53.116;6.734;2024-01-10T13:33:37;18.75;;;9.80;;
57651;SDS011;43480;53.116;6.734;2024-01-10T13:36:03;19.45;;;10.13;;
57651;SDS011;43480;53.116;6.734;2024-01-10T13:38:29;16.98;;;8.82;;
57651;SDS011;43480;53.116;6.734;2024-01-10T13:40:55;18.45;;;9.90;;
57651;SDS011;43480;53.116;6.734;2024-01-10T13:43:21;27.50;;;12.32;;
57651;SDS011;43480;53.116;6.734;2024-01-10T13:45:47;18.85;;;10.25;;
57651;SDS011;43480;53.116;6.734;2024-01-10T13:48:13;20.25;;;9.57;;
57651;SDS011;43480;53.116;6.734;2024-01-10T13:50:39;21.13;;;10.85;;
57651;SDS011;43480;53.116;6.734;2024-01-10T13:53:04;17.70;;;10.07;;
57651;SDS011;43480;53.116;6.734;2024-01-10T13:55:30;19.13;;;10.02;;
57651;SDS011;43480;53.116;6.734;2024-01-10T13:57:57;16.40;;;9.23;;
57651;SDS011;43480;53.116;6.734;2024-01-10T14:00:22;19.75;;;9.98;;
57651;SDS011;43480;53.116;6.734;2024-01-10T14:02:48;23.23;;;9.82;;
57651;SDS011;43480;53.116;6.734;2024-01-10T14:05:14;19.33;;;9.75;;
57651;SDS011;43480;53.116;6.734;2024-01-10T14:07:40;21.27;;;10.10;;
57651;SDS011;43480;53.116;6.734;2024-01-10T14:10:09;23.10;;;11.93;;
57651;SDS011;43480;53.116;6.734;2024-01-10T14:12:36;22.67;;;11.73;;
57651;SDS011;43480;53.116;6.734;2024-01-10T14:15:02;18.70;;;9.77;;
57651;SDS011;43480;53.116;6.734;2024-01-10T14:17:29;21.20;;;10.32;;
57651;SDS011;43480;53.116;6.734;2024-01-10T14:19:54;19.45;;;10.70;;
57651;SDS011;43480;53.116;6.734;2024-01-10T14:22:20;22.02;;;11.48;;
57651;SDS011;43480;53.116;6.734;2024-01-10T14:24:49;20.27;;;10.68;;
57651;SDS011;43480;53.116;6.734;2024-01-10T14:27:15;21.05;;;11.20;;
57651;SDS011;43480;53.116;6.734;2024-01-10T14:29:41;23.58;;;11.20;;
57651;SDS011;43480;53.116;6.734;2024-01-10T14:32:07;22.80;;;12.13;;
57651;SDS011;43480;53.116;6.734;2024-01-10T14:34:33;24.48;;;11.05;;
57651;SDS011;43480;53.116;6.734;2024-01-10T14:36:58;22.77;;;11.65;;